Flight Track Log - Related Links

Times and Time Zones

All times are in EDT time to prevent confusion due to time zone crossing. See the ACA831 flight status page for this flight to view local times or setup timezone preferences in your user account.

Time Position Orientation Groundspeed Altitude Reporting Facility
EDT Latitude Longitude Course Direction KTS MPH feet Rate Location/Type
Wed 04:09:41 PM 45.4610 -73.7540 340° North 9 10  Level FlightAware ADS-B
Wed 04:10:36 PM 45.4610 -73.7570 270° West 14 16 126 Level FlightAware ADS-B
Wed 04:11:07 PM 45.4610 -73.7590 270° West 10 12 156 Level FlightAware ADS-B
Wed 04:11:26 PM 45.4610 -73.7610 270° West 9 10 180 Level FlightAware ADS-B
Wed 04:12:06 PM 45.4610 -73.7620 270° West 9 10 199 Level FlightAware ADS-B
Wed 04:12:36 PM 45.4600 -73.7630 215° Southwest 5 6 255 Level FlightAware ADS-B
Wed 04:13:02 PM 45.4600 -73.7640 270° West 6 7 324 Level FlightAware ADS-B
Wed 04:13:11 PM 45.4610 -73.7640 360° North 8 9 424 Level FlightAware ADS-B
Wed 04:13:32 PM 45.4610 -73.7650 270° West 8 9 474 Level FlightAware ADS-B
Wed 04:13:42 PM 45.4620 -73.7640 35° Northeast 9 10 655 Level FlightAware ADS-B
Wed 04:13:58 PM 45.4640 -73.7620 35° Northeast 70 81 800 Level FlightAware ADS-B
Wed 04:14:27 PM 45.4770 -73.7430 46° Northeast 162 186 600 2,000 Climbing FlightAware ADS-B
Wed 04:14:52 PM 45.4910 -73.7300 33° Northeast 169 194 1,800 2,850 Climbing FlightAware ADS-B
Wed 04:15:07 PM 45.5060 -73.7250 13° North 179 206 2,500 2,836 Climbing FlightAware ADS-B
Wed 04:15:47 PM 45.5410 -73.7230 North 195 224 4,400 2,727 Climbing FlightAware ADS-B
Wed 04:16:02 PM 45.5510 -73.7370 316° Northwest 214 246 5,000 2,600 Climbing FlightAware ADS-B
Wed 04:16:17 PM 45.5540 -73.7600 281° West 232 267 5,700 2,400 Climbing FlightAware ADS-B
Wed 04:16:32 PM 45.5480 -73.7820 249° West 254 292 6,200 3,150 Climbing FlightAware ADS-B
Wed 04:16:57 PM 45.5300 -73.8180 234° Southwest 269 310 7,800 4,029 Climbing FlightAware ADS-B
Wed 04:17:42 PM 45.5020 -73.8930 242° Southwest 285 328 10,900 3,448 Climbing FlightAware ADS-B
Wed 04:18:24 PM 45.4890 -73.9750 257° West 328 377 12,800 3,279 Climbing FlightAware ADS-B
Wed 04:19:08 PM 45.4750 -74.0720 258° West 343 395 15,600 3,698 Climbing FlightAware ADS-B
Wed 04:19:50 PM 45.4590 -74.1660 256° West 356 410 18,100 3,357 Climbing FlightAware ADS-B
Wed 04:20:32 PM 45.4440 -74.2620 257° West 370 426 20,300 3,146 Climbing FlightAware ADS-B
Wed 04:21:12 PM 45.4280 -74.3610 257° West 381 438 22,400 2,429 Climbing FlightAware ADS-B
Wed 04:21:56 PM 45.4100 -74.4700 257° West 402 463 23,700 1,116 Climbing FlightAware ADS-B
Wed 04:22:38 PM 45.3910 -74.5810 256° West 408 470 24,000 732 Climbing FlightAware ADS-B
Wed 04:23:18 PM 45.3740 -74.6830 257° West 393 452 24,700 1,829 Climbing FlightAware ADS-B
Wed 04:24:00 PM 45.3560 -74.7900 257° West 402 463 26,500 2,429 Climbing FlightAware ADS-B
Wed 04:24:42 PM 45.3380 -74.8980 257° West 414 476 28,100 2,163 Climbing FlightAware ADS-B
Wed 04:25:26 PM 45.3170 -75.0180 256° West 430 495 29,600 2,286 Climbing FlightAware ADS-B
Wed 04:26:06 PM 45.2980 -75.1260 256° West 431 496 31,300 2,071 Climbing FlightAware ADS-B
Wed 04:26:50 PM 45.2770 -75.2470 256° West 442 509 32,500 1,786 Climbing FlightAware ADS-B
Wed 04:27:30 PM 45.2570 -75.3610 256° West 440 506 33,800 1,071 Climbing FlightAware ADS-B
Wed 04:28:14 PM 45.2360 -75.4820 256° West 437 503 34,000 146 Climbing FlightAware ADS-B
Wed 04:28:52 PM 45.2170 -75.5900 256° West 438 504 34,000  Level FlightAware ADS-B
Wed 04:29:38 PM 45.1940 -75.7180 256° West 436 502 34,000  Level FlightAware ADS-B
Wed 04:33:14 PM 45.1120 -76.2820 259° West 432 497 34,000  Level FlightAware ADS-B
Wed 04:33:56 PM 45.1000 -76.4270 263° West 440 506 34,000  Level FlightAware ADS-B
Wed 04:34:36 PM 45.0720 -76.5400 251° West 461 531 34,000  Level FlightAware ADS-B
Wed 04:35:18 PM 45.0250 -76.6490 239° Southwest 470 541 34,000  Level FlightAware ADS-B
Wed 04:36:00 PM 44.9760 -76.7610 238° Southwest 474 545 34,000 -136 Level FlightAware ADS-B
Wed 04:36:46 PM 44.9250 -76.8770 238° Southwest 477 549 33,800 -732 Descending FlightAware ADS-B
Wed 04:37:22 PM 44.8810 -76.9760 238° Southwest 482 555 33,000 -1,244 Descending FlightAware ADS-B
Wed 04:38:08 PM 44.8270 -77.0970 238° Southwest 481 554 32,100 -1,159 Descending FlightAware ADS-B
Wed 04:38:50 PM 44.7750 -77.2060 236° Southwest 488 562 31,300 -929 Descending FlightAware ADS-B
Wed 04:39:32 PM 44.7020 -77.2900 219° Southwest 490 564 30,800 -717 Descending FlightAware ADS-B
Wed 04:40:22 PM 44.6140 -77.3820 217° Southwest 483 556 30,200 -895 Descending FlightAware ADS-B
Wed 04:41:26 PM 44.4990 -77.5200 221° Southwest 466 536 29,100 -839 Descending FlightAware ADS-B
Wed 04:42:45 PM 44.4250 -77.7140 242° Southwest 447 514 28,200 -857 Descending FlightAware ADS-B
Wed 04:43:25 PM 44.3890 -77.8200 245° Southwest 448 516 27,400 -1,705 Descending FlightAware ADS-B
Wed 04:44:20 PM 44.3410 -77.9590 244° Southwest 426 490 25,500 -2,686 Descending FlightAware ADS-B
Wed 04:45:10 PM 44.2960 -78.0880 244° Southwest 430 495 22,700 -2,901 Descending FlightAware ADS-B
Wed 04:45:51 PM 44.2610 -78.1870 244° Southwest 423 487 21,100 -2,374 Descending FlightAware ADS-B
Wed 04:46:41 PM 44.2200 -78.3050 244° Southwest 413 475 19,100 -2,337 Descending FlightAware ADS-B
Wed 04:47:26 PM 44.1840 -78.4060 244° Southwest 397 457 17,400 -2,302 Descending FlightAware ADS-B
Wed 04:48:07 PM 44.1500 -78.5020 244° Southwest 387 445 15,800 -2,471 Descending FlightAware ADS-B
Wed 04:48:51 PM 44.1150 -78.6020 244° Southwest 380 437 13,900 -2,500 Descending FlightAware ADS-B
Wed 04:49:31 PM 44.0840 -78.6880 243° Southwest 375 432 12,300 -2,118 Descending FlightAware ADS-B
Wed 04:50:16 PM 44.0510 -78.7780 243° Southwest 356 410 10,900 -1,800 Descending FlightAware ADS-B
Wed 04:50:51 PM 44.0180 -78.8410 234° Southwest 313 360 9,900 -1,500 Descending FlightAware ADS-B
Wed 04:51:56 PM 43.9600 -78.9280 227° Southwest 254 292 8,400 -1,267 Descending FlightAware ADS-B
Wed 04:52:21 PM 43.9410 -78.9570 228° Southwest 246 283 8,000 -873 Descending FlightAware ADS-B
Wed 04:52:51 PM 43.9180 -78.9900 226° Southwest 241 277 7,600 -982 Descending FlightAware ADS-B
Wed 04:53:16 PM 43.8990 -79.0190 228° Southwest 239 275 7,100 -545 Descending FlightAware ADS-B
Wed 04:53:46 PM 43.8800 -79.0480 228° Southwest 242 278 7,100  Level FlightAware ADS-B
Wed 04:53:56 PM 43.8730 -79.0640 239° Southwest 237 273 7,100  Level FlightAware ADS-B
Wed 04:54:11 PM 43.8700 -79.0900 261° West 235 270 7,100 -533 Level FlightAware ADS-B
Wed 04:54:41 PM 43.8710 -79.1360 272° West 236 272 6,700 -1,029 Descending FlightAware ADS-B
Wed 04:55:21 PM 43.8680 -79.1930 266° West 236 272 5,900 -1,114 Descending FlightAware ADS-B
Wed 04:55:51 PM 43.8610 -79.2350 257° West 239 275 5,400 -982 Descending FlightAware ADS-B
Wed 04:56:16 PM 43.8540 -79.2770 257° West 232 267 5,000 -900 Descending FlightAware ADS-B
Wed 04:56:31 PM 43.8510 -79.2990 259° West 227 261 4,800 -533 Descending FlightAware ADS-B
Wed 04:57:01 PM 43.8430 -79.3390 255° West 217 250 4,600 -267 Descending FlightAware ADS-B
Wed 04:57:16 PM 43.8360 -79.3570 242° Southwest 213 245 4,600  Level FlightAware ADS-B
Wed 04:57:31 PM 43.8270 -79.3730 232° Southwest 217 250 4,600 -450 Level FlightAware ADS-B
Wed 04:57:56 PM 43.8110 -79.4000 231° Southwest 208 239 4,300 -600 Descending FlightAware ADS-B
Wed 04:58:11 PM 43.8010 -79.4140 225° Southwest 204 235 4,200 -857 Descending FlightAware ADS-B
Wed 04:58:38 PM 43.7850 -79.4370 226° Southwest 207 238 3,700 -1,053 Descending FlightAware ADS-B
Wed 04:59:08 PM 43.7650 -79.4670 227° Southwest 206 237 3,200 -1,116 Descending FlightAware ADS-B
Wed 04:59:21 PM 43.7550 -79.4820 227° Southwest 209 241 2,900 -1,105 Descending FlightAware ADS-B
Wed 04:59:46 PM 43.7390 -79.5050 226° Southwest 203 234 2,500 -964 Descending FlightAware ADS-B
Wed 05:00:17 PM 43.7210 -79.5310 226° Southwest 180 207 2,000 -1,000 Descending FlightAware ADS-B
Wed 05:00:46 PM 43.7050 -79.5540 226° Southwest 154 177 1,500 -842 Descending FlightAware ADS-B
Wed 05:01:14 PM 43.6910 -79.5750 227° Southwest 152 175 1,200 -632 Descending FlightAware ADS-B
Wed 05:01:24 PM 43.6870 -79.5810 227° Southwest 152 175 1,100 -158 Descending FlightAware ADS-B
Wed 05:01:52 PM 43.6750 -79.5970 224° Southwest 152 175 1,100  Level FlightAware ADS-B

Login

Don't have an account? Register now (free) for customized features, flight alerts, and more!